Time;durP1;ratioP1;P1;durP2;ratioP2;P2;SDS_P1;SDS_P2;PMS_P1;PMS_P2;Temp;Humidity;BMP_temperature;BMP_pressure;BME280_temperature;BME280_humidity;BME280_pressure;Samples;Min_cycle;Max_cycle;Signal;HPM_P1;HPM_P2
2023/09/03 00:00:26;;;;;;;8.05;5.60;;;;;;;;;;5005889;28;20036;-77
2023/09/03 00:02:53;;;;;;;10.32;6.35;;;;;;;;;;5028295;28;20029;-77
2023/09/03 00:05:18;;;;;;;13.98;6.35;;;;;;;;;;5009190;28;20616;-78
2023/09/03 00:07:44;;;;;;;13.20;6.30;;;;;;;;;;5018638;28;20045;-78
2023/09/03 00:10:09;;;;;;;13.70;6.43;;;;;;;;;;5026905;28;20055;-77
2023/09/03 00:12:34;;;;;;;9.73;6.05;;;;;;;;;;5016376;28;20052;-77
2023/09/03 00:15:00;;;;;;;10.23;6.22;;;;;;;;;;5022758;28;20032;-77
2023/09/03 00:17:25;;;;;;;9.10;7.03;;;;;;;;;;5006347;28;20029;-79
2023/09/03 00:19:51;;;;;;;9.82;6.93;;;;;;;;;;5006274;28;20498;-77
2023/09/03 00:22:16;;;;;;;10.00;6.70;;;;;;;;;;5004627;28;20070;-77
2023/09/03 00:24:41;;;;;;;8.80;6.55;;;;;;;;;;5026351;28;20074;-77
2023/09/03 00:27:06;;;;;;;9.48;6.32;;;;;;;;;;5019748;28;20086;-78
2023/09/03 00:29:32;;;;;;;10.00;6.63;;;;;;;;;;5000803;28;20021;-77
2023/09/03 00:31:57;;;;;;;9.02;5.78;;;;;;;;;;5026882;28;21298;-77
2023/09/03 00:34:23;;;;;;;9.18;5.88;;;;;;;;;;5027891;28;20026;-77
2023/09/03 00:36:48;;;;;;;7.18;5.28;;;;;;;;;;5024740;28;20038;-77
2023/09/03 00:39:13;;;;;;;9.88;5.70;;;;;;;;;;5017631;28;20364;-77
2023/09/03 00:41:39;;;;;;;13.45;5.80;;;;;;;;;;5012699;28;20100;-77
2023/09/03 00:44:04;;;;;;;7.88;5.45;;;;;;;;;;5024929;28;20025;-77
2023/09/03 00:46:30;;;;;;;6.38;5.28;;;;;;;;;;5024483;28;20036;-77
2023/09/03 00:48:56;;;;;;;6.90;5.30;;;;;;;;;;5027425;28;20041;-77
2023/09/03 00:51:22;;;;;;;5.97;5.20;;;;;;;;;;5001999;28;20033;-77
2023/09/03 00:53:53;;;;;;;6.65;4.05;;;;;;;;;;5025804;28;20017;-77
2023/09/03 00:56:19;;;;;;;4.63;4.18;;;;;;;;;;5030111;28;20025;-77
2023/09/03 00:58:45;;;;;;;6.82;4.95;;;;;;;;;;5008997;28;20583;-77
2023/09/03 01:01:11;;;;;;;8.70;5.50;;;;;;;;;;5022317;28;20060;-77
2023/09/03 01:03:36;;;;;;;11.27;5.53;;;;;;;;;;5022569;28;20137;-76
2023/09/03 01:06:02;;;;;;;8.57;5.97;;;;;;;;;;5028010;28;20060;-77
2023/09/03 01:08:28;;;;;;;8.95;4.40;;;;;;;;;;5026143;28;20520;-77
2023/09/03 01:11:18;;;;;;;11.63;4.78;;;;;;;;;;5009407;28;20034;-77
2023/09/03 01:14:00;;;;;;;9.40;4.47;;;;;;;;;;5002899;28;20033;-77
2023/09/03 01:16:33;;;;;;;7.05;4.72;;;;;;;;;;5028008;28;20045;-77
2023/09/03 01:19:04;;;;;;;4.88;3.83;;;;;;;;;;5005420;28;20079;-77
2023/09/03 01:21:52;;;;;;;7.35;4.00;;;;;;;;;;5005486;28;20125;-77
2023/09/03 01:24:31;;;;;;;4.68;4.15;;;;;;;;;;5024323;28;20050;-77
2023/09/03 01:27:07;;;;;;;4.63;4.20;;;;;;;;;;5030875;28;20510;-77
2023/09/03 01:29:33;;;;;;;6.75;5.03;;;;;;;;;;5001980;28;20069;-76
2023/09/03 01:31:59;;;;;;;7.72;5.50;;;;;;;;;;5025962;28;20132;-78
2023/09/03 01:34:26;;;;;;;11.18;5.95;;;;;;;;;;5026664;28;20025;-77
2023/09/03 01:36:52;;;;;;;12.65;5.95;;;;;;;;;;5020273;28;20499;-77
2023/09/03 01:39:18;;;;;;;15.48;6.80;;;;;;;;;;5020554;28;20025;-77
2023/09/03 01:41:43;;;;;;;11.27;6.80;;;;;;;;;;5024182;28;20045;-77
2023/09/03 01:44:09;;;;;;;9.82;6.00;;;;;;;;;;5006501;28;20368;-80
2023/09/03 01:46:53;;;;;;;10.27;5.50;;;;;;;;;;5027125;28;20045;-77
2023/09/03 01:49:48;;;;;;;8.38;5.35;;;;;;;;;;4998174;28;20107;-77
2023/09/03 01:52:27;;;;;;;9.55;6.05;;;;;;;;;;5018504;28;20037;-77
2023/09/03 01:54:56;;;;;;;8.15;5.47;;;;;;;;;;5026488;28;20033;-77
2023/09/03 01:57:27;;;;;;;8.10;5.50;;;;;;;;;;5010147;28;20352;-77
2023/09/03 01:59:55;;;;;;;6.18;5.15;;;;;;;;;;5004250;28;20053;-77
2023/09/03 02:02:21;;;;;;;8.43;5.35;;;;;;;;;;5024325;28;20191;-77
2023/09/03 02:04:47;;;;;;;7.57;4.47;;;;;;;;;;5023881;28;20034;-77
2023/09/03 02:07:12;;;;;;;9.68;4.32;;;;;;;;;;5025202;28;20041;-77
2023/09/03 02:09:37;;;;;;;4.30;3.60;;;;;;;;;;5024966;28;20108;-76
2023/09/03 02:12:05;;;;;;;5.93;3.80;;;;;;;;;;5021309;28;20029;-77
2023/09/03 02:14:31;;;;;;;4.20;3.47;;;;;;;;;;5026373;28;20026;-77
2023/09/03 02:16:56;;;;;;;5.90;3.53;;;;;;;;;;5024895;28;20106;-77
2023/09/03 02:19:22;;;;;;;3.78;3.45;;;;;;;;;;5022644;28;20173;-77
2023/09/03 02:21:48;;;;;;;4.97;3.78;;;;;;;;;;5023536;28;20045;-77
2023/09/03 02:24:13;;;;;;;5.30;3.92;;;;;;;;;;5025284;28;20028;-78
2023/09/03 02:26:41;;;;;;;11.95;5.13;;;;;;;;;;5008119;28;20029;-77
2023/09/03 02:29:06;;;;;;;9.32;5.47;;;;;;;;;;5023742;28;20587;-77
2023/09/03 02:31:31;;;;;;;9.13;6.25;;;;;;;;;;5005508;28;20121;-77
2023/09/03 02:33:56;;;;;;;8.20;5.50;;;;;;;;;;5025642;28;20509;-77
2023/09/03 02:36:22;;;;;;;5.70;4.43;;;;;;;;;;5004157;28;26991;-76
2023/09/03 02:38:47;;;;;;;9.50;6.28;;;;;;;;;;5020694;28;20442;-76
2023/09/03 02:41:12;;;;;;;9.85;5.90;;;;;;;;;;5021586;28;20041;-77
2023/09/03 02:43:38;;;;;;;10.95;5.70;;;;;;;;;;5022187;28;20070;-77
2023/09/03 02:46:03;;;;;;;8.77;5.88;;;;;;;;;;5022674;28;20033;-77
2023/09/03 02:48:28;;;;;;;7.82;5.00;;;;;;;;;;5003896;28;20232;-77
2023/09/03 02:50:54;;;;;;;7.78;4.93;;;;;;;;;;5022357;28;20040;-79
2023/09/03 02:53:19;;;;;;;7.90;5.38;;;;;;;;;;5021313;28;20033;-76
2023/09/03 02:55:44;;;;;;;6.10;5.30;;;;;;;;;;5020989;28;20045;-77
2023/09/03 02:58:10;;;;;;;9.02;5.32;;;;;;;;;;5021078;28;20380;-76
2023/09/03 03:00:35;;;;;;;7.68;4.78;;;;;;;;;;5019813;28;20372;-77
2023/09/03 03:03:01;;;;;;;9.30;5.53;;;;;;;;;;5007462;28;20033;-77
2023/09/03 03:05:26;;;;;;;8.85;5.45;;;;;;;;;;5025742;28;20038;-77
2023/09/03 03:07:51;;;;;;;8.73;4.80;;;;;;;;;;5007869;28;20085;-77
2023/09/03 03:10:17;;;;;;;5.47;4.07;;;;;;;;;;5022970;28;20061;-76
2023/09/03 03:12:45;;;;;;;6.18;3.60;;;;;;;;;;5025009;28;20134;-77
2023/09/03 03:15:10;;;;;;;4.70;3.72;;;;;;;;;;5007262;28;20040;-77
2023/09/03 03:17:36;;;;;;;8.38;3.80;;;;;;;;;;5024716;28;20033;-77
2023/09/03 03:20:02;;;;;;;9.07;3.90;;;;;;;;;;5024288;28;20037;-77
2023/09/03 03:22:28;;;;;;;9.45;4.50;;;;;;;;;;5022334;28;20045;-79
2023/09/03 03:24:53;;;;;;;6.18;4.18;;;;;;;;;;5027135;28;20616;-77
2023/09/03 03:27:20;;;;;;;10.48;4.55;;;;;;;;;;5025082;28;20045;-77
2023/09/03 03:29:45;;;;;;;5.65;4.28;;;;;;;;;;5011898;28;20551;-78
2023/09/03 03:32:10;;;;;;;8.98;4.68;;;;;;;;;;5028525;28;20041;-78
2023/09/03 03:34:40;;;;;;;6.45;4.35;;;;;;;;;;5026218;28;20037;-77
2023/09/03 03:37:05;;;;;;;4.88;4.25;;;;;;;;;;5012078;28;20042;-77
2023/09/03 03:39:30;;;;;;;4.97;4.50;;;;;;;;;;5026440;28;20029;-77
2023/09/03 03:41:56;;;;;;;5.50;4.30;;;;;;;;;;5027533;28;20019;-77
2023/09/03 03:44:21;;;;;;;7.15;4.82;;;;;;;;;;5027588;28;20036;-77
2023/09/03 03:46:46;;;;;;;10.20;5.90;;;;;;;;;;5025242;28;20411;-77
2023/09/03 03:49:12;;;;;;;11.50;6.18;;;;;;;;;;5028903;28;20033;-77
2023/09/03 03:51:37;;;;;;;8.98;5.13;;;;;;;;;;5025695;28;20038;-77
2023/09/03 03:54:04;;;;;;;10.00;5.78;;;;;;;;;;5022645;28;20025;-77
2023/09/03 03:56:29;;;;;;;10.18;5.88;;;;;;;;;;5009439;28;20763;-77
2023/09/03 03:58:55;;;;;;;6.13;5.18;;;;;;;;;;5010294;28;20151;-77
2023/09/03 04:01:23;;;;;;;10.23;6.53;;;;;;;;;;5022980;28;20037;-77
2023/09/03 04:03:50;;;;;;;8.55;6.00;;;;;;;;;;5009184;28;20033;-77
2023/09/03 04:06:16;;;;;;;10.32;6.55;;;;;;;;;;5024825;28;20085;-78
2023/09/03 04:08:44;;;;;;;8.65;6.40;;;;;;;;;;5011689;28;20422;-78
2023/09/03 04:11:11;;;;;;;12.23;5.93;;;;;;;;;;5010953;28;20132;-77
2023/09/03 04:13:38;;;;;;;10.85;6.20;;;;;;;;;;5010976;28;20038;-77
2023/09/03 04:16:14;;;;;;;13.02;6.60;;;;;;;;;;5025672;28;20030;-77
2023/09/03 04:18:39;;;;;;;11.63;5.80;;;;;;;;;;5004473;28;20133;-77
2023/09/03 04:21:05;;;;;;;10.85;5.60;;;;;;;;;;5008313;28;20074;-77
2023/09/03 04:23:30;;;;;;;8.98;6.25;;;;;;;;;;5007480;28;20040;-77
2023/09/03 04:25:57;;;;;;;9.52;6.28;;;;;;;;;;5008508;28;20036;-77
2023/09/03 04:28:23;;;;;;;10.50;6.68;;;;;;;;;;5022483;28;20068;-76
2023/09/03 04:30:56;;;;;;;8.23;6.18;;;;;;;;;;5021848;28;20049;-77
2023/09/03 04:33:23;;;;;;;10.43;6.78;;;;;;;;;;5029777;28;20072;-79
2023/09/03 04:35:58;;;;;;;16.55;7.18;;;;;;;;;;5010461;28;20083;-77
2023/09/03 04:38:24;;;;;;;12.13;6.78;;;;;;;;;;5026749;28;20468;-77
2023/09/03 04:40:49;;;;;;;10.60;5.82;;;;;;;;;;5022793;28;20561;-78
2023/09/03 04:43:15;;;;;;;6.82;5.68;;;;;;;;;;5012591;28;20089;-78
2023/09/03 04:45:48;;;;;;;9.73;5.63;;;;;;;;;;5023876;28;20137;-77
2023/09/03 04:48:14;;;;;;;12.60;6.20;;;;;;;;;;5024738;28;20053;-77
2023/09/03 04:50:39;;;;;;;8.85;5.38;;;;;;;;;;5008811;28;20060;-77
2023/09/03 04:53:05;;;;;;;7.18;5.80;;;;;;;;;;5028446;28;20068;-77
2023/09/03 04:55:34;;;;;;;9.60;6.18;;;;;;;;;;5026714;28;20044;-77
2023/09/03 04:58:00;;;;;;;8.82;5.55;;;;;;;;;;5024670;28;20068;-77
2023/09/03 05:00:25;;;;;;;10.27;5.78;;;;;;;;;;5022763;27;20041;-77
2023/09/03 05:02:51;;;;;;;10.95;6.78;;;;;;;;;;5009160;28;20119;-77
2023/09/03 05:05:18;;;;;;;11.55;6.50;;;;;;;;;;5031501;28;20030;-77
2023/09/03 05:07:43;;;;;;;8.32;5.88;;;;;;;;;;5007058;28;20061;-79
2023/09/03 05:10:09;;;;;;;9.00;5.47;;;;;;;;;;5026864;28;20025;-79
2023/09/03 05:12:34;;;;;;;11.57;6.07;;;;;;;;;;5006685;28;20037;-77
2023/09/03 05:14:59;;;;;;;11.05;6.45;;;;;;;;;;5009720;28;20024;-77
2023/09/03 05:17:25;;;;;;;13.00;6.40;;;;;;;;;;5003133;28;20041;-77
2023/09/03 05:19:50;;;;;;;7.72;6.10;;;;;;;;;;5023580;28;20394;-77
2023/09/03 05:22:16;;;;;;;7.45;5.72;;;;;;;;;;5030052;28;20108;-77
2023/09/03 05:24:41;;;;;;;9.10;5.60;;;;;;;;;;5028549;28;20699;-78
2023/09/03 05:27:06;;;;;;;7.07;5.65;;;;;;;;;;5030654;28;20033;-77
2023/09/03 05:29:32;;;;;;;6.43;4.75;;;;;;;;;;5027082;28;20029;-78
2023/09/03 05:31:57;;;;;;;6.68;4.63;;;;;;;;;;5006108;28;20120;-77
2023/09/03 05:34:23;;;;;;;6.05;4.07;;;;;;;;;;5024235;28;20176;-77
2023/09/03 05:36:49;;;;;;;6.63;4.05;;;;;;;;;;5003163;28;20038;-77
2023/09/03 05:39:14;;;;;;;8.60;4.53;;;;;;;;;;5025014;28;20029;-77
2023/09/03 05:41:39;;;;;;;6.72;3.67;;;;;;;;;;5025817;28;20033;-77
2023/09/03 05:44:09;;;;;;;5.70;4.05;;;;;;;;;;5005517;28;20048;-77
2023/09/03 05:46:38;;;;;;;7.47;4.38;;;;;;;;;;5008346;28;20022;-77
2023/09/03 05:49:03;;;;;;;6.30;4.70;;;;;;;;;;5003016;28;20040;-78
2023/09/03 05:51:29;;;;;;;7.97;5.65;;;;;;;;;;5021755;28;20037;-77
2023/09/03 05:53:54;;;;;;;6.35;5.75;;;;;;;;;;5022321;28;20029;-77
2023/09/03 05:56:19;;;;;;;6.80;5.70;;;;;;;;;;5019203;28;20034;-78
2023/09/03 05:58:45;;;;;;;18.75;6.80;;;;;;;;;;5016548;28;20055;-77
2023/09/03 06:01:11;;;;;;;10.98;6.18;;;;;;;;;;5006229;28;20033;-78
2023/09/03 06:03:38;;;;;;;8.70;6.50;;;;;;;;;;5026662;28;20049;-78
2023/09/03 06:06:08;;;;;;;6.32;5.25;;;;;;;;;;5035462;28;20036;-77
2023/09/03 06:08:35;;;;;;;7.07;5.63;;;;;;;;;;5027575;28;20046;-78
2023/09/03 06:11:01;;;;;;;6.40;5.30;;;;;;;;;;5030766;28;20042;-78
2023/09/03 06:13:27;;;;;;;6.43;5.20;;;;;;;;;;5012088;28;20040;-78
2023/09/03 06:15:53;;;;;;;5.97;4.57;;;;;;;;;;5010905;28;20497;-78
2023/09/03 06:18:18;;;;;;;5.88;5.20;;;;;;;;;;5008373;28;21519;-78
2023/09/03 06:20:43;;;;;;;8.57;4.93;;;;;;;;;;5025875;28;20030;-79
2023/09/03 06:23:09;;;;;;;7.55;5.10;;;;;;;;;;5021962;28;20121;-79
2023/09/03 06:25:35;;;;;;;8.48;4.50;;;;;;;;;;5007340;28;20578;-79
2023/09/03 06:28:01;;;;;;;6.18;4.72;;;;;;;;;;5022591;28;20037;-78
2023/09/03 06:30:26;;;;;;;5.97;4.35;;;;;;;;;;5025657;28;20052;-78
2023/09/03 06:32:52;;;;;;;6.10;4.38;;;;;;;;;;5009243;28;20024;-81
2023/09/03 06:35:17;;;;;;;5.95;4.35;;;;;;;;;;5005921;28;20465;-77
2023/09/03 06:37:43;;;;;;;4.75;4.20;;;;;;;;;;5022894;28;20116;-77
2023/09/03 06:40:08;;;;;;;7.65;3.70;;;;;;;;;;5030744;28;20034;-78
2023/09/03 06:42:34;;;;;;;4.45;3.25;;;;;;;;;;5024351;27;20033;-78
2023/09/03 06:44:59;;;;;;;3.47;3.17;;;;;;;;;;5012204;28;20022;-78
2023/09/03 06:47:25;;;;;;;4.50;3.00;;;;;;;;;;5025073;28;20057;-78
2023/09/03 06:49:51;;;;;;;4.72;3.03;;;;;;;;;;5010036;28;20041;-78
2023/09/03 06:52:17;;;;;;;4.43;3.28;;;;;;;;;;5009369;28;20049;-78
2023/09/03 06:54:42;;;;;;;5.13;3.25;;;;;;;;;;5009993;28;20034;-78
2023/09/03 06:57:07;;;;;;;3.97;3.08;;;;;;;;;;5002930;28;20030;-79
2023/09/03 06:59:33;;;;;;;3.33;2.60;;;;;;;;;;5010333;28;20647;-78
2023/09/03 07:01:58;;;;;;;4.03;3.10;;;;;;;;;;5013257;28;20108;-77
2023/09/03 07:04:24;;;;;;;6.63;2.60;;;;;;;;;;5007236;28;20053;-77
2023/09/03 07:06:49;;;;;;;3.40;2.65;;;;;;;;;;5028679;28;20037;-79
2023/09/03 07:09:14;;;;;;;3.08;2.78;;;;;;;;;;5018270;28;20491;-78
2023/09/03 07:11:39;;;;;;;4.70;2.47;;;;;;;;;;5003200;28;20022;-76
2023/09/03 07:14:05;;;;;;;6.10;3.22;;;;;;;;;;5008962;28;20101;-76
2023/09/03 07:16:30;;;;;;;4.93;2.78;;;;;;;;;;5027798;28;20129;-76
2023/09/03 07:18:56;;;;;;;2.58;2.38;;;;;;;;;;5027637;28;20047;-76
2023/09/03 07:21:21;;;;;;;4.68;2.75;;;;;;;;;;5023846;28;20037;-76
2023/09/03 07:23:46;;;;;;;2.50;2.30;;;;;;;;;;5023973;28;20029;-76
2023/09/03 07:26:12;;;;;;;4.18;2.40;;;;;;;;;;5025562;28;20675;-76
2023/09/03 07:28:38;;;;;;;2.75;2.13;;;;;;;;;;5004421;28;20041;-76
2023/09/03 07:31:04;;;;;;;2.63;2.30;;;;;;;;;;5024237;28;20033;-76
2023/09/03 07:33:29;;;;;;;6.28;2.60;;;;;;;;;;5023881;28;20030;-76
2023/09/03 07:35:54;;;;;;;4.30;2.30;;;;;;;;;;5023856;28;20336;-77
2023/09/03 07:38:21;;;;;;;2.63;2.42;;;;;;;;;;5018621;28;20491;-76
2023/09/03 07:40:46;;;;;;;3.60;2.53;;;;;;;;;;4999721;28;20132;-76
2023/09/03 07:43:11;;;;;;;10.38;2.60;;;;;;;;;;5024754;28;20562;-76
2023/09/03 07:45:36;;;;;;;3.38;2.42;;;;;;;;;;5024190;28;20391;-76
2023/09/03 07:48:02;;;;;;;4.00;2.30;;;;;;;;;;5019269;28;20085;-76
2023/09/03 07:50:30;;;;;;;7.32;2.53;;;;;;;;;;5024754;28;20038;-76
2023/09/03 07:52:57;;;;;;;2.38;2.17;;;;;;;;;;5023495;28;20090;-76
2023/09/03 07:55:23;;;;;;;4.00;2.58;;;;;;;;;;5003005;28;20406;-76
2023/09/03 07:57:48;;;;;;;3.13;2.20;;;;;;;;;;5023807;28;20045;-76
2023/09/03 08:00:13;;;;;;;3.75;2.47;;;;;;;;;;5021922;28;20045;-77
2023/09/03 08:02:39;;;;;;;4.68;2.22;;;;;;;;;;5026461;28;20036;-77
2023/09/03 08:05:05;;;;;;;2.85;2.50;;;;;;;;;;5024063;28;20052;-77
2023/09/03 08:07:30;;;;;;;3.13;2.63;;;;;;;;;;5007574;28;20091;-77
2023/09/03 08:09:56;;;;;;;3.05;2.22;;;;;;;;;;5014353;28;20037;-77
2023/09/03 08:12:21;;;;;;;3.33;2.30;;;;;;;;;;5007035;28;20471;-77
2023/09/03 08:14:48;;;;;;;2.40;2.20;;;;;;;;;;5005967;28;20036;-77
2023/09/03 08:17:14;;;;;;;4.53;2.53;;;;;;;;;;5010022;28;20029;-77
2023/09/03 08:19:40;;;;;;;5.28;2.53;;;;;;;;;;5011293;28;20243;-77
2023/09/03 08:22:05;;;;;;;2.60;2.05;;;;;;;;;;5023232;28;20120;-77
2023/09/03 08:24:30;;;;;;;6.07;2.20;;;;;;;;;;5021529;28;20034;-77
2023/09/03 08:26:56;;;;;;;2.78;2.20;;;;;;;;;;5023714;28;20889;-77
2023/09/03 08:29:21;;;;;;;3.60;2.50;;;;;;;;;;5022925;28;20108;-76
2023/09/03 08:31:47;;;;;;;2.85;2.42;;;;;;;;;;5020910;28;20053;-78
2023/09/03 08:34:12;;;;;;;5.13;2.17;;;;;;;;;;5003304;28;20113;-77
2023/09/03 08:36:37;;;;;;;5.25;2.53;;;;;;;;;;5028813;28;20567;-77
2023/09/03 08:39:04;;;;;;;3.35;2.30;;;;;;;;;;5028431;28;20091;-76
2023/09/03 08:41:31;;;;;;;4.65;2.50;;;;;;;;;;5022730;28;20118;-77
2023/09/03 08:44:03;;;;;;;4.85;2.10;;;;;;;;;;4997984;28;20037;-77
2023/09/03 08:46:31;;;;;;;2.40;2.20;;;;;;;;;;5015800;28;20037;-77
2023/09/03 08:48:59;;;;;;;2.55;2.35;;;;;;;;;;5012606;28;20041;-77
2023/09/03 08:51:26;;;;;;;3.42;2.10;;;;;;;;;;5023251;28;20460;-77
2023/09/03 08:53:54;;;;;;;2.90;2.45;;;;;;;;;;5006950;28;20466;-78
2023/09/03 08:56:20;;;;;;;4.22;2.00;;;;;;;;;;5018570;28;20068;-77
2023/09/03 08:58:45;;;;;;;2.20;2.00;;;;;;;;;;5008216;28;20114;-77
2023/09/03 09:01:13;;;;;;;3.85;1.95;;;;;;;;;;5017674;28;20034;-78
2023/09/03 09:03:38;;;;;;;3.78;2.08;;;;;;;;;;5022343;28;20049;-77
2023/09/03 09:06:06;;;;;;;2.60;2.35;;;;;;;;;;5011071;28;20021;-77
2023/09/03 09:08:33;;;;;;;2.42;2.20;;;;;;;;;;5017525;28;20018;-77
2023/09/03 09:11:04;;;;;;;3.10;2.28;;;;;;;;;;5020313;28;20034;-77
2023/09/03 09:13:35;;;;;;;4.22;2.20;;;;;;;;;;5024891;28;20025;-77
2023/09/03 09:16:00;;;;;;;2.65;2.13;;;;;;;;;;5008051;28;20052;-76
2023/09/03 09:18:26;;;;;;;4.60;2.38;;;;;;;;;;5001425;28;20050;-76
2023/09/03 09:20:56;;;;;;;6.15;2.30;;;;;;;;;;4999220;28;20033;-77
2023/09/03 09:23:24;;;;;;;2.35;2.10;;;;;;;;;;5005152;28;20039;-76
2023/09/03 09:25:50;;;;;;;2.10;1.90;;;;;;;;;;5001963;28;20052;-77
2023/09/03 09:28:16;;;;;;;2.05;1.85;;;;;;;;;;5008475;28;20137;-76
2023/09/03 09:30:55;;;;;;;2.10;1.90;;;;;;;;;;5015055;28;20116;-77
2023/09/03 09:33:20;;;;;;;2.53;2.05;;;;;;;;;;5008896;28;20090;-77
2023/09/03 09:35:46;;;;;;;7.13;1.83;;;;;;;;;;5015082;28;20041;-76
2023/09/03 09:38:12;;;;;;;3.55;1.90;;;;;;;;;;5022088;28;20038;-77
2023/09/03 09:40:37;;;;;;;2.05;1.85;;;;;;;;;;5021117;28;20045;-76
2023/09/03 09:43:07;;;;;;;3.13;1.70;;;;;;;;;;5012332;28;20535;-77
2023/09/03 09:45:43;;;;;;;3.25;1.80;;;;;;;;;;4987779;28;20054;-77
2023/09/03 09:48:10;;;;;;;1.80;1.70;;;;;;;;;;5014250;28;20029;-77
2023/09/03 09:50:40;;;;;;;2.65;2.00;;;;;;;;;;5025469;28;20381;-77
2023/09/03 09:53:20;;;;;;;2.90;2.03;;;;;;;;;;5004155;28;20033;-77
2023/09/03 09:55:45;;;;;;;3.05;1.80;;;;;;;;;;4985116;28;20043;-77
2023/09/03 09:58:12;;;;;;;2.53;2.28;;;;;;;;;;5009278;28;20074;-78
2023/09/03 10:00:41;;;;;;;3.67;2.33;;;;;;;;;;5016425;28;20037;-78
2023/09/03 10:03:07;;;;;;;2.65;2.13;;;;;;;;;;5012037;28;20027;-78
2023/09/03 10:05:34;;;;;;;1.90;1.80;;;;;;;;;;5005852;28;20021;-78
2023/09/03 10:08:00;;;;;;;2.53;2.08;;;;;;;;;;5007336;28;20030;-77
2023/09/03 10:10:25;;;;;;;2.30;2.08;;;;;;;;;;5023088;28;20465;-77
2023/09/03 10:12:51;;;;;;;2.67;2.10;;;;;;;;;;5014192;28;20041;-77
2023/09/03 10:15:17;;;;;;;3.25;2.10;;;;;;;;;;5019628;28;20030;-76
2023/09/03 10:17:51;;;;;;;1.90;1.80;;;;;;;;;;5007086;28;20037;-77
2023/09/03 10:20:19;;;;;;;1.85;1.75;;;;;;;;;;5008959;28;20029;-77
2023/09/03 10:22:45;;;;;;;2.17;1.90;;;;;;;;;;5019796;28;20050;-77
2023/09/03 10:25:13;;;;;;;2.40;2.10;;;;;;;;;;5031188;28;20038;-78
2023/09/03 10:27:45;;;;;;;7.22;2.40;;;;;;;;;;5025289;28;20037;-78
2023/09/03 10:30:14;;;;;;;1.98;1.80;;;;;;;;;;5006919;28;20021;-76
2023/09/03 10:32:41;;;;;;;3.08;1.98;;;;;;;;;;5021948;28;20036;-77
2023/09/03 10:35:11;;;;;;;4.88;2.30;;;;;;;;;;5006360;28;20086;-77
2023/09/03 10:37:40;;;;;;;2.35;1.80;;;;;;;;;;5007681;28;20037;-78
2023/09/03 10:40:26;;;;;;;2.17;1.98;;;;;;;;;;4999262;28;20384;-78
2023/09/03 10:42:53;;;;;;;3.05;2.10;;;;;;;;;;5019492;28;20098;-76
2023/09/03 10:45:19;;;;;;;3.35;2.10;;;;;;;;;;5012083;28;20022;-76
2023/09/03 10:48:04;;;;;;;1.70;1.60;;;;;;;;;;5018025;28;20104;-78
2023/09/03 10:50:48;;;;;;;3.05;1.90;;;;;;;;;;5006637;28;20042;-76
2023/09/03 10:53:36;;;;;;;2.28;1.70;;;;;;;;;;5002358;28;20038;-77
2023/09/03 10:56:10;;;;;;;6.30;2.20;;;;;;;;;;5017349;28;20050;-77
2023/09/03 10:58:53;;;;;;;2.38;1.80;;;;;;;;;;5018534;28;20037;-77
2023/09/03 11:01:30;;;;;;;4.82;1.70;;;;;;;;;;4999904;28;20655;-77
2023/09/03 11:03:57;;;;;;;1.98;1.80;;;;;;;;;;5020822;28;20072;-78
2023/09/03 11:06:33;;;;;;;4.55;1.77;;;;;;;;;;5024206;28;20021;-76
2023/09/03 11:08:58;;;;;;;2.25;1.50;;;;;;;;;;5013561;28;20030;-76
2023/09/03 11:11:25;;;;;;;1.70;1.60;;;;;;;;;;5017119;28;20112;-78
2023/09/03 11:13:53;;;;;;;1.88;1.77;;;;;;;;;;5020247;28;20292;-77
2023/09/03 11:18:48;;;;;;;2.90;1.90;;;;;;;;;;5027115;27;20080;-81
2023/09/03 11:21:14;;;;;;;1.80;1.70;;;;;;;;;;5032519;28;20566;-82
2023/09/03 11:23:39;;;;;;;2.28;1.75;;;;;;;;;;5036929;28;20053;-82
2023/09/03 11:26:12;;;;;;;4.90;1.95;;;;;;;;;;5034034;27;20076;-82
2023/09/03 11:28:38;;;;;;;2.17;1.80;;;;;;;;;;5040107;28;20033;-83
2023/09/03 11:31:03;;;;;;;2.50;2.20;;;;;;;;;;5054316;27;20029;-84
2023/09/03 11:33:28;;;;;;;3.97;2.10;;;;;;;;;;5096973;27;20037;-82
2023/09/03 11:35:54;;;;;;;2.10;2.00;;;;;;;;;;5034434;28;20018;-84
2023/09/03 11:38:27;;;;;;;2.40;1.80;;;;;;;;;;5034141;28;20041;-80
2023/09/03 11:40:55;;;;;;;2.00;1.80;;;;;;;;;;5033952;28;20025;-82
2023/09/03 11:43:20;;;;;;;2.67;1.80;;;;;;;;;;5078811;28;20117;-82
2023/09/03 11:45:46;;;;;;;4.45;2.10;;;;;;;;;;5033040;27;20046;-83
2023/09/03 11:48:11;;;;;;;2.22;1.92;;;;;;;;;;5037036;28;20525;-80
2023/09/03 11:50:36;;;;;;;2.13;1.75;;;;;;;;;;5033478;28;20044;-81
2023/09/03 11:53:05;;;;;;;4.78;1.92;;;;;;;;;;5038177;27;20053;-80
2023/09/03 11:55:45;;;;;;;2.40;2.20;;;;;;;;;;5038298;27;20030;-81
2023/09/03 11:58:13;;;;;;;2.42;1.75;;;;;;;;;;5108407;27;20490;-79
2023/09/03 12:00:39;;;;;;;3.50;1.85;;;;;;;;;;5103104;27;20068;-80
2023/09/03 12:03:05;;;;;;;2.08;1.88;;;;;;;;;;5038067;27;20033;-81
2023/09/03 12:05:33;;;;;;;1.80;1.67;;;;;;;;;;5039182;28;20033;-84
2023/09/03 12:08:02;;;;;;;2.17;1.77;;;;;;;;;;5102526;28;20518;-82
2023/09/03 12:10:28;;;;;;;2.33;2.13;;;;;;;;;;5033602;28;20029;-82
2023/09/03 12:12:54;;;;;;;4.78;1.70;;;;;;;;;;5033477;28;20402;-81
2023/09/03 12:15:21;;;;;;;2.15;1.85;;;;;;;;;;5033329;28;20025;-81
2023/09/03 12:17:46;;;;;;;2.95;2.05;;;;;;;;;;5033987;28;20022;-81
2023/09/03 12:20:34;;;;;;;1.70;1.60;;;;;;;;;;5038417;28;20037;-81
2023/09/03 12:23:18;;;;;;;2.88;2.58;;;;;;;;;;5118063;27;20602;-83
2023/09/03 12:25:44;;;;;;;3.70;2.30;;;;;;;;;;5032945;28;20043;-81
2023/09/03 12:28:10;;;;;;;3.08;2.20;;;;;;;;;;5100620;28;20403;-81
2023/09/03 12:30:56;;;;;;;2.00;1.90;;;;;;;;;;5031620;28;20399;-82
2023/09/03 12:33:48;;;;;;;4.57;2.00;;;;;;;;;;5031663;28;20160;-83
2023/09/03 12:36:15;;;;;;;3.33;1.90;;;;;;;;;;5037814;28;20018;-81
2023/09/03 12:38:54;;;;;;;4.38;2.08;;;;;;;;;;5105330;27;20056;-82
2023/09/03 12:41:28;;;;;;;8.13;2.20;;;;;;;;;;5109639;27;20037;-81
2023/09/03 12:43:55;;;;;;;3.20;2.15;;;;;;;;;;5035157;27;20045;-81
2023/09/03 12:46:20;;;;;;;3.78;2.30;;;;;;;;;;5027365;28;20041;-80
2023/09/03 12:48:46;;;;;;;2.35;2.08;;;;;;;;;;5031643;28;20037;-80
2023/09/03 12:51:13;;;;;;;3.20;1.75;;;;;;;;;;5031325;28;20066;-82
2023/09/03 12:53:40;;;;;;;2.63;2.05;;;;;;;;;;5102854;27;20478;-80
2023/09/03 12:56:05;;;;;;;5.97;2.08;;;;;;;;;;5035511;27;20041;-82
2023/09/03 12:58:30;;;;;;;2.50;1.88;;;;;;;;;;5035972;28;20035;-81
2023/09/03 13:00:56;;;;;;;3.17;2.08;;;;;;;;;;5033793;27;20545;-79
2023/09/03 13:03:22;;;;;;;2.38;2.10;;;;;;;;;;5102731;27;21676;-79
2023/09/03 13:05:48;;;;;;;3.40;2.05;;;;;;;;;;5030480;28;20108;-79
2023/09/03 13:08:13;;;;;;;5.45;1.95;;;;;;;;;;5036496;28;20029;-79
2023/09/03 13:10:39;;;;;;;2.67;1.80;;;;;;;;;;5036035;27;20041;-80
2023/09/03 13:13:05;;;;;;;2.50;2.00;;;;;;;;;;5038587;28;20037;-82
2023/09/03 13:15:30;;;;;;;2.13;1.90;;;;;;;;;;5037605;28;20028;-82
2023/09/03 13:17:55;;;;;;;3.28;1.80;;;;;;;;;;5110181;27;20036;-82
2023/09/03 13:20:21;;;;;;;4.30;1.90;;;;;;;;;;5038058;28;20057;-79
2023/09/03 13:22:46;;;;;;;3.78;1.95;;;;;;;;;;5037918;28;20121;-80
2023/09/03 13:25:11;;;;;;;2.33;1.75;;;;;;;;;;5036987;27;20038;-80
2023/09/03 13:27:37;;;;;;;5.38;1.83;;;;;;;;;;5036844;28;20065;-80
2023/09/03 13:30:02;;;;;;;2.28;1.58;;;;;;;;;;5037983;28;20074;-80
2023/09/03 13:32:28;;;;;;;1.90;1.77;;;;;;;;;;5035662;28;20079;-79
2023/09/03 13:34:53;;;;;;;4.47;1.90;;;;;;;;;;5036777;28;20025;-80
2023/09/03 13:37:18;;;;;;;2.75;1.70;;;;;;;;;;5037390;27;20048;-80
2023/09/03 13:39:43;;;;;;;1.67;1.58;;;;;;;;;;5037376;28;20117;-80
2023/09/03 13:42:09;;;;;;;1.85;1.75;;;;;;;;;;5037562;28;20051;-79
2023/09/03 13:44:34;;;;;;;3.90;1.70;;;;;;;;;;5036568;28;20086;-80
2023/09/03 13:46:59;;;;;;;3.08;1.95;;;;;;;;;;5027258;28;20068;-81
2023/09/03 13:49:26;;;;;;;1.80;1.70;;;;;;;;;;5110096;27;20033;-79
2023/09/03 13:51:51;;;;;;;2.30;2.10;;;;;;;;;;5113442;27;20093;-82
2023/09/03 13:54:16;;;;;;;3.35;2.30;;;;;;;;;;5038784;27;20057;-80
2023/09/03 13:56:42;;;;;;;1.70;1.60;;;;;;;;;;5110911;27;20053;-80
2023/09/03 13:59:07;;;;;;;4.45;1.80;;;;;;;;;;5045163;27;20049;-81
2023/09/03 14:01:33;;;;;;;2.35;1.83;;;;;;;;;;5044512;27;20033;-82
2023/09/03 14:03:58;;;;;;;2.13;1.90;;;;;;;;;;5046361;27;20721;-81
2023/09/03 14:06:24;;;;;;;3.50;1.77;;;;;;;;;;5041120;27;20029;-81
2023/09/03 14:08:49;;;;;;;2.03;1.80;;;;;;;;;;5038521;28;20036;-80
2023/09/03 14:11:14;;;;;;;1.90;1.80;;;;;;;;;;5035972;28;20045;-82
2023/09/03 14:13:40;;;;;;;1.80;1.70;;;;;;;;;;5038000;28;20037;-81
2023/09/03 14:16:13;;;;;;;1.80;1.70;;;;;;;;;;5045650;27;20096;-81
2023/09/03 14:18:38;;;;;;;2.97;1.80;;;;;;;;;;5113902;27;20055;-81
2023/09/03 14:21:07;;;;;;;4.93;1.80;;;;;;;;;;5042385;28;20053;-81
2023/09/03 14:23:32;;;;;;;2.15;1.80;;;;;;;;;;5039229;28;20044;-81
2023/09/03 14:25:58;;;;;;;1.85;1.73;;;;;;;;;;5033816;28;20034;-80
2023/09/03 14:28:23;;;;;;;1.83;1.73;;;;;;;;;;5112129;27;20041;-82
2023/09/03 14:30:48;;;;;;;2.15;1.83;;;;;;;;;;5038475;27;20395;-78
2023/09/03 14:33:14;;;;;;;1.80;1.70;;;;;;;;;;5040757;28;20025;-79
2023/09/03 14:35:39;;;;;;;3.70;1.90;;;;;;;;;;5033991;28;20032;-79
2023/09/03 14:38:05;;;;;;;2.10;1.90;;;;;;;;;;5044304;27;20045;-81
2023/09/03 14:40:30;;;;;;;1.80;1.70;;;;;;;;;;5041491;28;20361;-81
2023/09/03 14:42:56;;;;;;;8.48;1.80;;;;;;;;;;5047050;27;20038;-81